« Back
NWS Peachtree City, Ga » Text Product » CSG Terminal Aerodrome Forecast


Printer-friendly Version
Current Version              Previous Versions:   1  2  3  4  5  6  7  8  9  

Terminal Aerodrome Forecast

292
FTUS42 KFFC 032336
TAFCSG
TAF
KCSG 032336Z 0400/0424 10004KT P6SM SCT100
     FM041200 35003KT P6SM FEW250
     FM041700 32007KT P6SM FEW040 SCT250
     FM042300 26004KT P6SM FEW250=

USA.gov is the U.S. government's official web portal to all federal, state and local government web resources and services.